createdAt,value
2017-12-24T00:00:38.082Z,90.40
2017-12-24T00:03:06.434Z,90.51
2017-12-24T00:05:34.768Z,90.47
2017-12-24T00:08:03.110Z,90.67
2017-12-24T00:10:31.432Z,90.48
2017-12-24T00:12:59.817Z,90.50
2017-12-24T00:15:28.141Z,90.29
2017-12-24T00:17:56.486Z,90.05
2017-12-24T00:20:24.815Z,90.11
2017-12-24T00:22:53.139Z,90.25
2017-12-24T00:25:21.486Z,90.23
2017-12-24T00:27:49.813Z,90.06
2017-12-24T00:30:18.158Z,89.83
2017-12-24T00:32:46.491Z,90.00
2017-12-24T00:35:14.860Z,89.82
2017-12-24T00:37:43.178Z,90.12
2017-12-24T00:40:11.527Z,89.59
2017-12-24T00:42:39.850Z,89.67
2017-12-24T00:45:08.194Z,89.40
2017-12-24T00:47:36.527Z,89.53
2017-12-24T00:50:04.871Z,89.39
2017-12-24T00:52:33.202Z,89.46
2017-12-24T00:55:01.545Z,89.52
2017-12-24T00:57:29.878Z,89.33
2017-12-24T00:59:58.233Z,88.82
2017-12-24T01:02:26.558Z,89.00
2017-12-24T01:04:54.911Z,89.16
2017-12-24T01:07:23.234Z,89.10
2017-12-24T01:09:51.590Z,89.19
2017-12-24T01:12:19.979Z,89.13
2017-12-24T01:14:48.326Z,88.63
2017-12-24T01:17:16.718Z,88.40
2017-12-24T01:19:45.067Z,88.48
2017-12-24T01:22:13.394Z,88.42
2017-12-24T01:24:41.750Z,88.41
2017-12-24T01:27:10.073Z,88.25
2017-12-24T01:29:38.426Z,88.39
2017-12-24T01:32:06.747Z,88.44
2017-12-24T01:34:35.099Z,88.51
2017-12-24T01:37:03.422Z,88.37
2017-12-24T01:39:31.765Z,88.33
2017-12-24T01:42:00.103Z,88.43
2017-12-24T01:44:28.445Z,88.40
2017-12-24T01:46:56.783Z,88.42
2017-12-24T01:49:25.126Z,88.23
2017-12-24T01:51:53.454Z,88.38
2017-12-24T01:54:21.812Z,88.62
2017-12-24T01:56:50.146Z,88.79
2017-12-24T01:59:18.511Z,88.88
2017-12-24T02:01:46.827Z,89.28
2017-12-24T02:04:15.178Z,89.44
2017-12-24T02:06:43.502Z,89.29
2017-12-24T02:09:11.855Z,89.19
2017-12-24T02:11:40.186Z,89.21
2017-12-24T02:14:08.554Z,89.12
2017-12-24T02:16:36.873Z,89.15
2017-12-24T02:19:05.226Z,89.34
2017-12-24T02:21:33.563Z,89.43
2017-12-24T02:24:01.894Z,89.40
2017-12-24T02:26:30.275Z,89.67
2017-12-24T02:28:58.606Z,89.62
2017-12-24T02:31:26.963Z,89.77
2017-12-24T02:33:55.290Z,89.93
2017-12-24T02:36:23.638Z,89.81
2017-12-24T02:38:51.966Z,89.74
2017-12-24T02:41:20.314Z,89.58
2017-12-24T02:43:48.685Z,89.99
2017-12-24T02:46:17.031Z,89.94
2017-12-24T02:48:45.359Z,90.09
2017-12-24T02:51:13.719Z,89.69
2017-12-24T02:53:42.050Z,89.80
2017-12-24T02:56:10.393Z,90.09
2017-12-24T02:58:38.726Z,89.88
2017-12-24T03:01:07.078Z,90.02
2017-12-24T03:03:35.401Z,90.11
2017-12-24T03:06:03.750Z,90.10
2017-12-24T03:08:32.130Z,89.82
2017-12-24T03:11:00.485Z,89.53
2017-12-24T03:13:28.813Z,89.54
2017-12-24T03:15:57.167Z,89.38
2017-12-24T03:18:25.502Z,89.52
2017-12-24T03:20:53.845Z,89.36
2017-12-24T03:23:22.174Z,89.49
2017-12-24T03:25:50.547Z,89.29
2017-12-24T03:28:18.877Z,89.45
2017-12-24T03:30:47.227Z,89.34
2017-12-24T03:33:15.561Z,89.58
2017-12-24T03:35:43.909Z,89.26
2017-12-24T03:38:12.238Z,89.10
2017-12-24T03:40:40.599Z,88.99
2017-12-24T03:43:08.935Z,88.94
2017-12-24T03:45:37.285Z,89.25
2017-12-24T03:48:05.617Z,89.35
2017-12-24T03:50:33.974Z,89.69
2017-12-24T03:53:02.306Z,89.47
2017-12-24T03:55:30.654Z,89.44
2017-12-24T03:57:59.114Z,89.38
2017-12-24T04:00:27.459Z,89.14
2017-12-24T04:02:55.823Z,89.51
2017-12-24T04:05:24.184Z,89.31
2017-12-24T04:07:52.509Z,89.45
2017-12-24T04:10:20.862Z,89.39
2017-12-24T04:12:49.194Z,89.90
2017-12-24T04:15:17.542Z,89.78
2017-12-24T04:17:45.870Z,89.59
2017-12-24T04:20:14.227Z,89.66
2017-12-24T04:22:42.558Z,89.72
2017-12-24T04:25:10.890Z,89.61
2017-12-24T04:27:39.246Z,89.35
2017-12-24T04:30:07.573Z,89.55
2017-12-24T04:32:35.939Z,89.57
2017-12-24T04:35:04.270Z,89.76
2017-12-24T04:37:32.617Z,89.58
2017-12-24T04:40:00.948Z,89.86
2017-12-24T04:42:29.302Z,90.04
2017-12-24T04:44:57.629Z,90.19
2017-12-24T04:47:25.978Z,90.20
2017-12-24T04:49:54.308Z,90.26
2017-12-24T04:52:22.654Z,90.11
2017-12-24T04:54:50.979Z,90.12
2017-12-24T04:57:19.326Z,90.26
2017-12-24T04:59:47.694Z,90.44
2017-12-24T05:02:16.045Z,90.17
2017-12-24T05:04:44.381Z,90.22
2017-12-24T05:07:12.734Z,90.23
2017-12-24T05:09:41.080Z,90.47
2017-12-24T05:12:09.437Z,89.99
2017-12-24T05:14:37.797Z,89.97
2017-12-24T05:17:06.150Z,90.09
2017-12-24T05:19:34.478Z,89.91
2017-12-24T05:22:02.843Z,89.97
2017-12-24T05:24:31.174Z,90.05
2017-12-24T05:26:59.526Z,90.06
2017-12-24T05:29:27.857Z,90.11
2017-12-24T05:31:56.211Z,90.29
2017-12-24T05:34:24.538Z,89.94
2017-12-24T05:36:52.885Z,90.16
2017-12-24T05:39:21.213Z,90.10
2017-12-24T05:41:49.563Z,89.89
2017-12-24T05:44:17.894Z,89.70
2017-12-24T05:46:46.247Z,89.96
2017-12-24T05:49:14.582Z,89.72
2017-12-24T05:51:42.945Z,89.65
2017-12-24T05:54:11.274Z,89.80
2017-12-24T05:56:39.635Z,89.72
2017-12-24T05:59:07.987Z,89.85
2017-12-24T06:01:36.333Z,89.73
2017-12-24T06:04:04.666Z,89.47
2017-12-24T06:06:33.017Z,89.58
2017-12-24T06:09:01.359Z,89.72
2017-12-24T06:11:29.751Z,89.54
2017-12-24T06:13:58.078Z,89.37
2017-12-24T06:16:26.434Z,89.62
2017-12-24T06:18:54.774Z,89.42
2017-12-24T06:21:23.139Z,89.79
2017-12-24T06:23:51.474Z,89.70
2017-12-24T06:26:19.805Z,89.71
2017-12-24T06:28:48.161Z,89.83
2017-12-24T06:31:16.618Z,89.90
2017-12-24T06:33:44.974Z,90.14
2017-12-24T06:36:13.306Z,90.17
2017-12-24T06:38:41.670Z,90.19
2017-12-24T06:41:10.004Z,90.30
2017-12-24T06:43:38.362Z,90.35
2017-12-24T06:46:06.696Z,90.22
2017-12-24T06:48:35.062Z,90.41
2017-12-24T06:51:03.403Z,90.45
2017-12-24T06:53:31.754Z,90.69
2017-12-24T06:56:00.082Z,90.91
2017-12-24T06:58:28.458Z,90.58
2017-12-24T07:00:56.793Z,90.73
2017-12-24T07:03:25.147Z,90.97
2017-12-24T07:05:53.485Z,91.08
2017-12-24T07:08:21.841Z,91.23
2017-12-24T07:10:50.169Z,91.15
2017-12-24T07:13:18.530Z,91.14
2017-12-24T07:15:46.864Z,91.29
2017-12-24T07:18:15.214Z,91.66
2017-12-24T07:20:43.552Z,91.71
2017-12-24T07:23:11.898Z,92.00
2017-12-24T07:25:40.225Z,91.86
2017-12-24T07:28:08.578Z,92.15
2017-12-24T07:30:36.905Z,92.26
2017-12-24T07:33:05.257Z,92.51
2017-12-24T07:35:33.589Z,92.22
2017-12-24T07:38:01.943Z,91.94
2017-12-24T07:40:30.263Z,91.92
2017-12-24T07:42:58.617Z,91.96
2017-12-24T07:45:26.942Z,92.16
2017-12-24T07:47:55.294Z,91.91
2017-12-24T07:50:23.622Z,91.77
2017-12-24T07:52:51.967Z,91.55
2017-12-24T07:55:20.295Z,91.55
2017-12-24T07:57:48.650Z,91.46
2017-12-24T08:00:16.982Z,91.25
2017-12-24T08:02:45.330Z,91.06
2017-12-24T08:05:13.654Z,91.06
2017-12-24T08:07:42.007Z,91.19
2017-12-24T08:10:10.344Z,90.88
2017-12-24T08:12:38.690Z,90.77
2017-12-24T08:15:07.099Z,90.83
2017-12-24T08:17:36.099Z,90.78
2017-12-24T08:20:04.426Z,90.74
2017-12-24T08:22:32.778Z,90.20
2017-12-24T08:25:01.108Z,90.15
2017-12-24T08:27:29.433Z,90.10
2017-12-24T08:29:57.793Z,89.94
2017-12-24T08:32:26.123Z,90.11
2017-12-24T08:34:54.470Z,89.85
2017-12-24T08:37:23.706Z,89.50
2017-12-24T08:39:52.057Z,89.76
2017-12-24T08:42:20.432Z,89.66
2017-12-24T08:44:48.737Z,89.42
2017-12-24T08:47:17.251Z,89.53
2017-12-24T08:49:45.665Z,89.35
2017-12-24T08:52:14.042Z,89.31
2017-12-24T08:54:42.923Z,88.67
2017-12-24T08:57:11.384Z,88.54
2017-12-24T08:59:39.742Z,88.33
2017-12-24T09:02:08.082Z,88.17
2017-12-24T09:04:36.500Z,88.21
2017-12-24T09:07:04.815Z,88.08
2017-12-24T09:09:33.180Z,88.38
2017-12-24T09:12:01.529Z,88.75
2017-12-24T09:14:30.006Z,88.51
2017-12-24T09:16:58.349Z,88.71
2017-12-24T09:19:26.796Z,88.28
2017-12-24T09:21:55.158Z,88.51
2017-12-24T09:24:23.493Z,88.57
2017-12-24T09:26:51.851Z,88.76
2017-12-24T09:29:20.216Z,88.41
2017-12-24T09:31:48.587Z,88.48
2017-12-24T09:34:18.542Z,88.62
2017-12-24T09:36:46.931Z,88.77
2017-12-24T09:39:15.269Z,88.77
2017-12-24T09:41:44.192Z,89.01
2017-12-24T09:44:12.534Z,89.07
2017-12-24T09:46:40.875Z,88.99
2017-12-24T09:49:09.269Z,89.12
2017-12-24T09:51:37.653Z,88.89
2017-12-24T09:54:07.013Z,89.05
2017-12-24T09:56:35.354Z,89.20
2017-12-24T09:59:03.711Z,88.60
2017-12-24T10:01:32.055Z,88.69
2017-12-24T10:04:00.411Z,88.67
2017-12-24T10:06:28.752Z,89.04
2017-12-24T10:08:57.115Z,89.08
2017-12-24T10:11:25.451Z,89.23
2017-12-24T10:13:54.745Z,89.58
2017-12-24T10:16:23.082Z,89.74
2017-12-24T10:18:51.514Z,89.67
2017-12-24T10:21:20.174Z,89.78
2017-12-24T10:23:48.711Z,89.84
2017-12-24T10:26:17.061Z,89.97
2017-12-24T10:28:45.916Z,90.23
2017-12-24T10:31:15.318Z,90.36
2017-12-24T10:33:43.776Z,90.48
2017-12-24T10:36:13.106Z,90.61
2017-12-24T10:38:41.440Z,90.44
2017-12-24T10:41:09.786Z,91.10
2017-12-24T10:43:38.118Z,91.38
2017-12-24T10:46:06.496Z,91.20
2017-12-24T10:48:34.833Z,91.20
2017-12-24T10:51:03.178Z,91.32
2017-12-24T10:53:31.506Z,91.34
2017-12-24T10:56:00.843Z,91.28
2017-12-24T10:58:29.178Z,91.08
2017-12-24T11:00:57.538Z,90.86
2017-12-24T11:03:25.882Z,90.93
2017-12-24T11:05:55.639Z,90.76
2017-12-24T11:08:24.415Z,91.06
2017-12-24T11:10:52.766Z,91.04
2017-12-24T11:13:21.928Z,90.52
2017-12-24T11:15:50.330Z,90.09
2017-12-24T11:18:18.677Z,90.23
2017-12-24T11:20:47.035Z,90.21
2017-12-24T11:23:15.370Z,89.83
2017-12-24T11:25:44.736Z,89.59
2017-12-24T11:28:13.064Z,89.97
2017-12-24T11:30:41.414Z,89.92
2017-12-24T11:33:09.747Z,89.70
2017-12-24T11:35:39.102Z,89.84
2017-12-24T11:38:07.538Z,89.74
2017-12-24T11:40:36.329Z,89.40
2017-12-24T11:43:04.822Z,89.41
2017-12-24T11:45:33.202Z,89.13
2017-12-24T11:48:01.534Z,89.07
2017-12-24T11:50:29.932Z,88.97
2017-12-24T11:52:58.251Z,89.17
2017-12-24T11:55:26.615Z,89.59
2017-12-24T11:57:55.478Z,89.50
2017-12-24T12:00:23.834Z,89.93
2017-12-24T12:02:52.545Z,90.00
2017-12-24T12:05:21.194Z,89.98
2017-12-24T12:07:49.526Z,90.45
2017-12-24T12:10:17.883Z,90.93
2017-12-24T12:12:46.207Z,91.53
2017-12-24T12:15:15.263Z,91.56
2017-12-24T12:17:43.595Z,92.01
2017-12-24T12:20:11.974Z,92.01
2017-12-24T12:22:40.311Z,91.91
2017-12-24T12:25:08.670Z,91.90
2017-12-24T12:27:36.998Z,92.08
2017-12-24T12:30:05.350Z,92.17
2017-12-24T12:32:33.675Z,92.22
2017-12-24T12:35:02.043Z,91.77
2017-12-24T12:37:30.734Z,91.65
2017-12-24T12:39:59.103Z,91.55
2017-12-24T12:42:27.434Z,91.78
2017-12-24T12:44:55.862Z,91.97
2017-12-24T12:47:24.215Z,91.82
2017-12-24T12:49:52.566Z,91.92
2017-12-24T12:52:20.946Z,92.06
2017-12-24T12:54:49.270Z,92.00
2017-12-24T12:57:17.663Z,92.77
2017-12-24T12:59:46.000Z,92.88
2017-12-24T13:02:14.375Z,93.63
2017-12-24T13:04:42.690Z,93.93
2017-12-24T13:07:11.050Z,94.44
2017-12-24T13:09:39.457Z,94.75
2017-12-24T13:12:07.803Z,95.04
2017-12-24T13:14:36.122Z,95.46
2017-12-24T13:17:04.490Z,95.51
2017-12-24T13:19:32.839Z,95.49
2017-12-24T13:22:01.186Z,95.75
2017-12-24T13:24:29.515Z,95.91
2017-12-24T13:26:57.882Z,95.82
2017-12-24T13:29:26.218Z,95.94
2017-12-24T13:31:54.557Z,96.00
2017-12-24T13:34:22.889Z,95.95
2017-12-24T13:36:51.230Z,96.07
2017-12-24T13:39:19.553Z,95.80
2017-12-24T13:41:47.898Z,96.08
2017-12-24T13:44:16.227Z,96.37
2017-12-24T13:46:44.578Z,96.39
2017-12-24T13:49:12.893Z,96.41
2017-12-24T13:51:42.070Z,96.51
2017-12-24T13:54:10.453Z,96.76
2017-12-24T13:56:38.734Z,96.59
2017-12-24T13:59:07.063Z,96.55
2017-12-24T14:01:35.410Z,96.47
2017-12-24T14:04:03.730Z,96.39
2017-12-24T14:06:32.072Z,96.40
2017-12-24T14:09:00.402Z,96.67
2017-12-24T14:11:28.887Z,96.49
2017-12-24T14:13:57.273Z,96.21
2017-12-24T14:16:25.610Z,96.12
2017-12-24T14:18:53.939Z,96.06
2017-12-24T14:21:22.287Z,96.00
2017-12-24T14:23:50.606Z,95.93
2017-12-24T14:26:18.955Z,95.80
2017-12-24T14:28:47.278Z,95.33
2017-12-24T14:31:16.523Z,95.16
2017-12-24T14:33:44.842Z,94.94
2017-12-24T14:36:14.111Z,94.96
2017-12-24T14:38:42.440Z,94.94
2017-12-24T14:41:10.782Z,94.76
2017-12-24T14:43:44.461Z,94.73
2017-12-24T14:46:13.937Z,94.54
2017-12-24T14:48:42.359Z,94.44
2017-12-24T14:51:10.771Z,94.30
2017-12-24T14:53:39.095Z,94.30
2017-12-24T14:56:07.426Z,94.26
2017-12-24T14:58:35.771Z,94.21
2017-12-24T15:01:04.102Z,94.18
2017-12-24T15:03:32.450Z,94.27
2017-12-24T15:06:00.779Z,94.38
2017-12-24T15:08:29.131Z,94.56
2017-12-24T15:10:57.454Z,94.57
2017-12-24T15:13:25.810Z,94.47
2017-12-24T15:15:54.126Z,94.75
2017-12-24T15:18:22.476Z,94.78
2017-12-24T15:20:50.806Z,94.77
2017-12-24T15:23:19.146Z,94.60
2017-12-24T15:25:48.391Z,94.40
2017-12-24T15:28:16.742Z,94.57
2017-12-24T15:30:45.070Z,94.52
2017-12-24T15:33:13.434Z,94.47
2017-12-24T15:35:42.730Z,94.50
2017-12-24T15:38:11.086Z,94.56
2017-12-24T15:40:39.430Z,94.50
2017-12-24T15:43:07.781Z,94.46
2017-12-24T15:45:36.126Z,94.18
2017-12-24T15:48:04.483Z,94.09
2017-12-24T15:50:32.822Z,94.00
2017-12-24T15:53:01.171Z,93.97
2017-12-24T15:55:29.510Z,93.77
2017-12-24T15:57:57.861Z,93.76
2017-12-24T16:00:26.181Z,93.84
2017-12-24T16:02:54.538Z,93.87
2017-12-24T16:05:22.863Z,93.87
2017-12-24T16:07:51.210Z,93.66
2017-12-24T16:10:19.542Z,93.62
2017-12-24T16:12:47.898Z,93.69
2017-12-24T16:15:17.433Z,93.54
2017-12-24T16:17:45.791Z,93.65
2017-12-24T16:20:14.109Z,93.49
2017-12-24T16:22:42.466Z,93.54
2017-12-24T16:25:10.786Z,93.25
2017-12-24T16:27:39.134Z,93.11
2017-12-24T16:30:07.467Z,93.22
2017-12-24T16:32:35.815Z,93.02
2017-12-24T16:35:04.175Z,92.72
2017-12-24T16:37:32.537Z,92.67
2017-12-24T16:40:00.869Z,92.57
2017-12-24T16:42:29.242Z,92.64
2017-12-24T16:44:57.638Z,92.46
2017-12-24T16:47:25.978Z,92.12
2017-12-24T16:49:54.319Z,91.94
2017-12-24T16:52:22.675Z,91.67
2017-12-24T16:54:51.008Z,91.50
2017-12-24T16:57:19.362Z,91.74
2017-12-24T16:59:47.729Z,91.81
2017-12-24T17:02:16.054Z,91.78
2017-12-24T17:04:44.421Z,91.96
2017-12-24T17:07:12.745Z,91.98
2017-12-24T17:09:41.136Z,92.18
2017-12-24T17:12:09.474Z,91.86
2017-12-24T17:14:37.827Z,91.84
2017-12-24T17:17:06.171Z,91.50
2017-12-24T17:19:34.538Z,91.22
2017-12-24T17:22:03.371Z,91.15
2017-12-24T17:24:31.727Z,91.21
2017-12-24T17:27:00.066Z,91.25
2017-12-24T17:29:28.425Z,91.15
2017-12-24T17:31:56.762Z,91.06
2017-12-24T17:34:25.119Z,91.16
2017-12-24T17:36:53.454Z,91.00
2017-12-24T17:39:21.806Z,90.83
2017-12-24T17:41:50.146Z,90.69
2017-12-24T17:44:18.498Z,90.28
2017-12-24T17:46:46.868Z,90.07
2017-12-24T17:49:15.229Z,90.58
2017-12-24T17:51:43.564Z,90.55
2017-12-24T17:54:11.918Z,90.65
2017-12-24T17:56:40.263Z,90.81
2017-12-24T17:59:08.614Z,90.62
2017-12-24T18:01:36.955Z,90.92
2017-12-24T18:04:05.305Z,90.64
2017-12-24T18:06:33.641Z,90.82
2017-12-24T18:09:02.002Z,90.96
2017-12-24T18:11:30.857Z,90.96
2017-12-24T18:13:59.218Z,90.49
2017-12-24T18:16:27.554Z,90.51
2017-12-24T18:18:55.973Z,90.65
2017-12-24T18:21:24.254Z,90.18
2017-12-24T18:23:52.607Z,90.28
2017-12-24T18:26:20.942Z,90.20
2017-12-24T18:28:49.294Z,89.95
2017-12-24T18:31:18.489Z,90.12
2017-12-24T18:33:46.841Z,89.76
2017-12-24T18:36:15.182Z,89.51
2017-12-24T18:38:43.538Z,90.13
2017-12-24T18:41:11.886Z,90.60
2017-12-24T18:43:40.242Z,90.73
2017-12-24T18:46:08.579Z,90.64
2017-12-24T18:48:36.930Z,90.40
2017-12-24T18:51:06.135Z,90.81
2017-12-24T18:53:34.487Z,91.31
2017-12-24T18:56:02.818Z,91.25
2017-12-24T18:58:31.194Z,91.28
2017-12-24T19:00:59.595Z,91.15
2017-12-24T19:03:27.930Z,91.28
2017-12-24T19:05:57.170Z,91.64
2017-12-24T19:08:25.499Z,91.80
2017-12-24T19:10:54.615Z,91.69
2017-12-24T19:13:22.966Z,91.46
2017-12-24T19:15:51.750Z,90.88
2017-12-24T19:18:20.091Z,90.68
2017-12-24T19:20:48.516Z,90.53
2017-12-24T19:23:16.841Z,90.87
2017-12-24T19:25:46.114Z,90.48
2017-12-24T19:28:14.451Z,90.07
2017-12-24T19:30:43.642Z,89.87
2017-12-24T19:33:11.977Z,89.85
2017-12-24T19:35:41.233Z,89.96
2017-12-24T19:38:09.570Z,89.74
2017-12-24T19:40:37.922Z,89.73
2017-12-24T19:43:06.275Z,89.80
2017-12-24T19:45:35.582Z,89.62
2017-12-24T19:48:03.914Z,89.48
2017-12-24T19:50:32.271Z,89.57
2017-12-24T19:53:00.606Z,89.26
2017-12-24T19:55:29.920Z,89.42
2017-12-24T19:57:58.260Z,89.04
2017-12-24T20:00:26.617Z,89.18
2017-12-24T20:02:54.945Z,89.01
2017-12-24T20:05:23.298Z,88.86
2017-12-24T20:07:51.632Z,88.73
2017-12-24T20:10:19.982Z,88.64
2017-12-24T20:12:48.328Z,88.76
2017-12-24T20:15:17.646Z,88.68
2017-12-24T20:17:45.991Z,88.54
2017-12-24T20:20:14.347Z,88.78
2017-12-24T20:22:42.699Z,88.57
2017-12-24T20:25:11.059Z,88.51
2017-12-24T20:27:39.394Z,88.35
2017-12-24T20:30:07.774Z,88.46
2017-12-24T20:32:36.092Z,88.22
2017-12-24T20:35:04.443Z,88.05
2017-12-24T20:37:32.793Z,88.09
2017-12-24T20:40:01.199Z,87.86
2017-12-24T20:42:29.486Z,87.73
2017-12-24T20:44:57.846Z,87.53
2017-12-24T20:47:26.188Z,87.06
2017-12-24T20:49:54.543Z,87.08
2017-12-24T20:52:22.877Z,87.15
2017-12-24T20:54:51.230Z,87.35
2017-12-24T20:57:19.626Z,87.44
2017-12-24T20:59:47.918Z,87.37
2017-12-24T21:02:16.250Z,87.21
2017-12-24T21:04:44.610Z,87.30
2017-12-24T21:07:12.938Z,87.58
2017-12-24T21:09:41.270Z,87.47
2017-12-24T21:12:09.635Z,87.64
2017-12-24T21:14:37.970Z,87.50
2017-12-24T21:17:06.330Z,87.44
2017-12-24T21:19:34.662Z,87.57
2017-12-24T21:22:03.010Z,87.53
2017-12-24T21:24:31.343Z,87.48
2017-12-24T21:26:59.696Z,87.22
2017-12-24T21:29:28.025Z,87.28
2017-12-24T21:31:56.486Z,87.67
2017-12-24T21:34:24.794Z,87.21
2017-12-24T21:36:53.147Z,87.40
2017-12-24T21:39:21.474Z,87.06
2017-12-24T21:41:49.826Z,86.83
2017-12-24T21:44:18.146Z,87.34
2017-12-24T21:46:46.950Z,87.48
2017-12-24T21:49:15.274Z,87.63
2017-12-24T21:51:43.613Z,87.44
2017-12-24T21:54:11.934Z,87.54
2017-12-24T21:56:40.282Z,87.14
2017-12-24T21:59:08.602Z,87.21
2017-12-24T22:01:36.949Z,86.92
2017-12-24T22:04:05.280Z,86.65
2017-12-24T22:06:33.761Z,87.04
2017-12-24T22:09:02.082Z,87.32
2017-12-24T22:11:30.434Z,86.75
2017-12-24T22:13:58.761Z,86.35
2017-12-24T22:16:27.112Z,86.07
2017-12-24T22:18:55.432Z,86.20
2017-12-24T22:21:23.774Z,86.12
2017-12-24T22:23:52.102Z,85.87
2017-12-24T22:26:21.402Z,85.67
2017-12-24T22:28:49.726Z,85.56
2017-12-24T22:31:18.074Z,85.61
2017-12-24T22:33:46.397Z,85.53
2017-12-24T22:36:14.742Z,85.26
2017-12-24T22:38:43.074Z,84.87
2017-12-24T22:41:11.435Z,85.28
2017-12-24T22:43:39.753Z,85.10
2017-12-24T22:46:08.106Z,85.04
2017-12-24T22:48:36.429Z,84.91
2017-12-24T22:51:04.770Z,84.87
2017-12-24T22:53:33.106Z,85.07
2017-12-24T22:56:01.605Z,85.11
2017-12-24T22:58:29.935Z,84.85
2017-12-24T23:00:58.305Z,85.16
2017-12-24T23:03:26.825Z,85.07
2017-12-24T23:05:56.074Z,84.96
2017-12-24T23:08:24.408Z,85.13
2017-12-24T23:10:52.749Z,85.47
2017-12-24T23:13:21.128Z,85.35
2017-12-24T23:15:49.638Z,85.27
2017-12-24T23:18:17.977Z,85.52
2017-12-24T23:20:46.302Z,85.47
2017-12-24T23:23:14.676Z,85.72
2017-12-24T23:25:43.347Z,85.87
2017-12-24T23:28:11.698Z,85.82
2017-12-24T23:30:40.018Z,86.27
2017-12-24T23:33:08.357Z,86.31
2017-12-24T23:35:36.677Z,85.89
2017-12-24T23:38:05.018Z,85.92
2017-12-24T23:40:34.081Z,86.46
2017-12-24T23:43:02.422Z,87.09
2017-12-24T23:45:31.003Z,87.56
2017-12-24T23:47:59.357Z,87.37
2017-12-24T23:50:27.797Z,87.43
2017-12-24T23:52:56.157Z,87.39
2017-12-24T23:55:24.517Z,87.57
2017-12-24T23:57:52.861Z,87.13
